Time;durP1;ratioP1;P1;durP2;ratioP2;P2;SDS_P1;SDS_P2;PMS_P1;PMS_P2;Temp;Humidity;BMP_temperature;BMP_pressure;BME280_temperature;BME280_humidity;BME280_pressure;Samples;Min_cycle;Max_cycle;Signal;HPM_P1;HPM_P2
2024/04/09 00:01:31;;;;;;;16.38;14.60;;;14.90;99.90;;;;;;7370413;19;20029;-61
2024/04/09 00:03:58;;;;;;;21.63;14.38;;;14.90;99.90;;;;;;7370255;19;20026;-71
2024/04/09 00:06:25;;;;;;;19.08;14.45;;;14.90;99.90;;;;;;7373257;19;20752;-72
2024/04/09 00:08:53;;;;;;;19.38;15.90;;;14.90;99.90;;;;;;7367472;19;20022;-71
2024/04/09 00:11:22;;;;;;;19.95;15.43;;;14.90;99.90;;;;;;7372675;19;20874;-72
2024/04/09 00:13:58;;;;;;;22.40;15.80;;;14.90;99.90;;;;;;7366012;19;20032;-60
2024/04/09 00:16:27;;;;;;;21.33;17.13;;;14.90;99.90;;;;;;7370834;19;20379;-71
2024/04/09 00:18:56;;;;;;;21.45;16.77;;;14.90;99.90;;;;;;7368839;19;20069;-60
2024/04/09 00:21:24;;;;;;;18.17;16.27;;;14.80;99.90;;;;;;7368196;19;20501;-71
2024/04/09 00:23:51;;;;;;;19.58;17.58;;;14.80;99.90;;;;;;7370648;19;20700;-60
2024/04/09 00:26:17;;;;;;;21.55;17.52;;;14.80;99.90;;;;;;7366794;19;20030;-59
2024/04/09 00:28:44;;;;;;;21.52;18.40;;;14.70;99.90;;;;;;7371057;19;20903;-70
2024/04/09 00:31:10;;;;;;;21.42;19.15;;;14.70;99.90;;;;;;7368052;19;20589;-60
2024/04/09 00:33:36;;;;;;;21.88;19.02;;;14.70;99.90;;;;;;7369984;19;20022;-60
2024/04/09 00:36:03;;;;;;;24.42;20.27;;;14.70;99.90;;;;;;7369016;19;20022;-71
2024/04/09 00:38:29;;;;;;;21.52;18.23;;;14.60;99.90;;;;;;7364415;19;20026;-60
2024/04/09 00:40:55;;;;;;;22.33;19.40;;;14.60;99.90;;;;;;7365606;19;20391;-60
2024/04/09 00:43:22;;;;;;;24.65;18.90;;;14.60;99.90;;;;;;7366901;19;20014;-60
2024/04/09 00:45:50;;;;;;;25.25;20.27;;;14.60;99.90;;;;;;7369527;19;20074;-60
2024/04/09 00:48:17;;;;;;;24.58;20.70;;;14.60;99.90;;;;;;7370082;19;20021;-61
2024/04/09 00:50:45;;;;;;;25.10;22.48;;;14.60;99.90;;;;;;7368086;19;20041;-60
2024/04/09 00:53:15;;;;;;;25.02;21.30;;;14.60;99.90;;;;;;7366651;19;20035;-71
2024/04/09 00:55:47;;;;;;;26.67;21.20;;;14.60;99.90;;;;;;7371669;19;20022;-71
2024/04/09 00:58:14;;;;;;;;;;;14.50;99.90;;;;;;7369619;19;20026;-71
2024/04/09 01:00:40;;;;;;;27.13;20.75;;;14.60;99.90;;;;;;7368533;19;19918;-60
2024/04/09 01:03:09;;;;;;;28.17;23.05;;;14.50;99.90;;;;;;7359274;19;20022;-60
2024/04/09 01:05:37;;;;;;;26.77;23.38;;;14.50;99.90;;;;;;7363564;19;20019;-60
2024/04/09 01:08:04;;;;;;;28.35;24.20;;;14.40;99.90;;;;;;7364437;19;20015;-71
2024/04/09 01:10:33;;;;;;;31.80;23.73;;;14.50;99.90;;;;;;7368108;19;20019;-71
2024/04/09 01:12:59;;;;;;;28.85;23.77;;;14.40;99.90;;;;;;7364586;19;20617;-71
2024/04/09 01:15:25;;;;;;;29.80;23.58;;;14.40;99.90;;;;;;7367136;19;20059;-71
2024/04/09 01:17:51;;;;;;;26.30;23.45;;;14.40;99.90;;;;;;7361108;19;20609;-60
2024/04/09 01:20:17;;;;;;;26.85;23.98;;;14.40;99.90;;;;;;7360818;19;20041;-60
2024/04/09 01:22:45;;;;;;;25.33;22.63;;;14.40;99.90;;;;;;7368340;19;20015;-71
2024/04/09 01:25:11;;;;;;;25.70;22.73;;;14.40;99.90;;;;;;7365384;19;20063;-70
2024/04/09 01:27:38;;;;;;;29.95;25.75;;;14.40;99.90;;;;;;7373636;19;20025;-70
2024/04/09 01:30:06;;;;;;;26.77;23.98;;;14.40;99.90;;;;;;7361662;19;20392;-60
2024/04/09 01:32:33;;;;;;;27.75;24.75;;;14.40;99.90;;;;;;7368465;19;20018;-70
2024/04/09 01:35:06;;;;;;;27.42;24.55;;;14.30;99.90;;;;;;7360994;19;20784;-70
2024/04/09 01:37:38;;;;;;;32.67;25.33;;;14.30;99.90;;;;;;7363371;19;20497;-69
2024/04/09 01:40:05;;;;;;;28.23;24.85;;;14.20;99.90;;;;;;7363180;19;20022;-70
2024/04/09 01:42:33;;;;;;;27.55;24.70;;;14.30;99.90;;;;;;7363911;19;20014;-70
2024/04/09 01:45:00;;;;;;;28.88;24.30;;;14.20;99.90;;;;;;7366964;19;20685;-70
2024/04/09 01:47:26;;;;;;;28.67;23.90;;;14.20;99.90;;;;;;7367376;19;20030;-71
2024/04/09 01:49:52;;;;;;;27.52;24.23;;;14.10;99.90;;;;;;7363167;19;20026;-70
2024/04/09 01:52:19;;;;;;;28.73;23.10;;;14.10;99.90;;;;;;7363957;19;20015;-70
2024/04/09 01:54:47;;;;;;;26.02;22.63;;;14.10;99.90;;;;;;7369614;19;20521;-59
2024/04/09 01:57:13;;;;;;;26.33;22.85;;;14.10;99.90;;;;;;7364787;19;20574;-60
2024/04/09 01:59:39;;;;;;;26.42;22.80;;;14.10;99.90;;;;;;7367144;19;20022;-70
2024/04/09 02:02:08;;;;;;;27.50;22.77;;;14.10;99.90;;;;;;7364002;19;20034;-71
2024/04/09 02:04:34;;;;;;;25.95;23.05;;;14.10;99.90;;;;;;7367385;19;20036;-71
2024/04/09 02:07:01;;;;;;;30.45;24.15;;;14.10;99.90;;;;;;7361618;19;20401;-61
2024/04/09 02:09:27;;;;;;;28.58;23.73;;;14.10;99.90;;;;;;7360307;19;20534;-60
2024/04/09 02:11:54;;;;;;;25.52;22.95;;;14.10;99.90;;;;;;7363835;19;20177;-71
2024/04/09 02:14:20;;;;;;;26.63;23.77;;;14.00;99.90;;;;;;7364935;19;20094;-70
2024/04/09 02:16:46;;;;;;;30.20;24.02;;;14.00;99.90;;;;;;7363563;19;20630;-60
2024/04/09 02:19:13;;;;;;;25.55;22.85;;;14.00;99.90;;;;;;7368288;19;20039;-70
2024/04/09 02:21:39;;;;;;;26.60;23.25;;;14.00;99.90;;;;;;7367732;19;20035;-71
2024/04/09 02:24:06;;;;;;;26.45;23.17;;;14.00;99.90;;;;;;7362466;19;21192;-70
2024/04/09 02:26:32;;;;;;;28.40;25.40;;;14.00;99.90;;;;;;7369753;19;20424;-60
2024/04/09 02:29:00;;;;;;;28.27;23.80;;;13.90;99.90;;;;;;7360784;19;20032;-71
2024/04/09 02:31:27;;;;;;;25.60;22.95;;;13.90;99.90;;;;;;7366050;19;20025;-71
2024/04/09 02:33:53;;;;;;;28.13;22.98;;;13.90;99.90;;;;;;7361589;19;20023;-71
2024/04/09 02:36:19;;;;;;;26.48;23.75;;;13.80;99.90;;;;;;7365827;19;20542;-70
2024/04/09 02:38:46;;;;;;;28.50;23.05;;;13.90;99.90;;;;;;7355805;19;20489;-60
2024/04/09 02:41:13;;;;;;;31.73;24.75;;;13.90;99.90;;;;;;7364416;19;20550;-70
2024/04/09 02:43:39;;;;;;;27.27;24.30;;;13.90;99.90;;;;;;7370349;19;21343;-69
2024/04/09 02:46:06;;;;;;;28.48;23.15;;;13.90;99.90;;;;;;7364058;19;20021;-70
2024/04/09 02:48:32;;;;;;;30.58;23.38;;;13.90;99.90;;;;;;7363924;19;20018;-70
2024/04/09 02:51:00;;;;;;;30.40;23.88;;;14.00;99.90;;;;;;7362142;19;20018;-70
2024/04/09 02:53:27;;;;;;;30.60;24.27;;;14.00;99.90;;;;;;7368022;19;20022;-70
2024/04/09 02:55:59;;;;;;;30.63;24.73;;;14.00;99.90;;;;;;7357578;19;20470;-70
2024/04/09 02:58:26;;;;;;;29.25;24.25;;;14.00;99.90;;;;;;7366637;19;20019;-70
2024/04/09 03:00:52;;;;;;;30.77;25.30;;;13.90;99.90;;;;;;7367160;19;20026;-70
2024/04/09 03:03:18;;;;;;;27.33;23.92;;;13.90;99.90;;;;;;7369988;19;20468;-70
2024/04/09 03:05:45;;;;;;;25.70;23.00;;;13.90;99.90;;;;;;7376297;19;20482;-70
2024/04/09 03:08:11;;;;;;;31.27;24.48;;;13.90;99.90;;;;;;7373014;19;20476;-71
2024/04/09 03:10:37;;;;;;;30.40;23.73;;;13.90;99.90;;;;;;7375417;19;20014;-70
2024/04/09 03:13:04;;;;;;;28.20;23.58;;;13.80;99.90;;;;;;7372236;19;20022;-60
2024/04/09 03:15:31;;;;;;;26.35;20.65;;;13.80;99.90;;;;;;7375879;19;20029;-71
2024/04/09 03:17:58;;;;;;;22.30;17.50;;;13.90;99.90;;;;;;7370853;19;20078;-71
2024/04/09 03:20:24;;;;;;;20.50;17.20;;;13.90;99.90;;;;;;7371143;19;20026;-70
2024/04/09 03:22:50;;;;;;;20.67;15.75;;;14.00;99.90;;;;;;7373804;19;20494;-60
2024/04/09 03:25:17;;;;;;;18.45;15.35;;;14.00;99.90;;;;;;7371947;19;20493;-59
2024/04/09 03:27:43;;;;;;;19.63;15.60;;;14.10;99.90;;;;;;7376007;19;20019;-70
2024/04/09 03:30:09;;;;;;;21.08;14.60;;;14.10;99.90;;;;;;7374196;19;20385;-70
2024/04/09 03:32:35;;;;;;;19.13;13.05;;;14.10;99.90;;;;;;7376465;19;20477;-70
2024/04/09 03:35:02;;;;;;;15.30;9.48;;;14.20;99.90;;;;;;7371090;19;20040;-70
2024/04/09 03:37:28;;;;;;;12.27;8.05;;;14.20;99.90;;;;;;7375859;19;20597;-70
2024/04/09 03:39:55;;;;;;;15.82;8.77;;;14.20;99.90;;;;;;7371085;19;20029;-61
2024/04/09 03:42:21;;;;;;;11.40;7.32;;;14.30;99.90;;;;;;7373746;19;20385;-60
2024/04/09 03:44:47;;;;;;;13.35;6.43;;;14.30;99.90;;;;;;7371803;19;20025;-61
2024/04/09 03:47:14;;;;;;;8.93;5.82;;;14.30;99.90;;;;;;7376673;19;20015;-59
2024/04/09 03:49:43;;;;;;;8.90;5.38;;;14.40;99.90;;;;;;7376227;19;20022;-70
2024/04/09 03:52:09;;;;;;;10.35;6.40;;;14.40;99.90;;;;;;7373470;19;20023;-59
2024/04/09 03:54:35;;;;;;;10.65;6.10;;;14.30;99.90;;;;;;7371080;19;20026;-59
2024/04/09 03:57:04;;;;;;;9.07;6.35;;;14.30;99.90;;;;;;7371979;19;20049;-59
2024/04/09 03:59:33;;;;;;;10.27;6.20;;;14.20;99.90;;;;;;7371041;19;20139;-59
2024/04/09 04:02:00;;;;;;;13.57;6.63;;;14.20;99.90;;;;;;7368442;19;20457;-59
2024/04/09 04:04:26;;;;;;;12.65;7.90;;;14.10;99.90;;;;;;7376109;19;20104;-60
2024/04/09 04:06:52;;;;;;;9.35;6.70;;;14.10;99.90;;;;;;7372274;19;20530;-60
2024/04/09 04:09:20;;;;;;;9.43;7.00;;;14.10;99.90;;;;;;7372674;19;20791;-60
2024/04/09 04:11:46;;;;;;;11.90;7.38;;;14.10;99.90;;;;;;7367830;19;20118;-70
2024/04/09 04:14:12;;;;;;;11.30;7.20;;;14.20;99.90;;;;;;7372535;19;20079;-70
2024/04/09 04:16:39;;;;;;;9.75;6.90;;;14.10;99.90;;;;;;7370017;19;20544;-70
2024/04/09 04:19:05;;;;;;;14.73;6.68;;;14.20;99.90;;;;;;7370455;19;20679;-70
2024/04/09 04:21:32;;;;;;;8.75;5.63;;;14.10;99.90;;;;;;7372477;19;20031;-70
2024/04/09 04:23:58;;;;;;;10.10;6.47;;;14.10;99.90;;;;;;7368908;19;20030;-60
2024/04/09 04:26:25;;;;;;;11.88;5.65;;;14.20;99.90;;;;;;7371731;19;20025;-59
2024/04/09 04:28:53;;;;;;;9.75;5.75;;;14.10;99.90;;;;;;7367234;19;20102;-59
2024/04/09 04:31:25;;;;;;;10.35;6.57;;;14.10;99.90;;;;;;7372519;19;20014;-59
2024/04/09 04:33:51;;;;;;;8.57;5.78;;;14.20;99.90;;;;;;7366049;19;20019;-70
2024/04/09 04:36:19;;;;;;;9.98;5.93;;;14.20;99.90;;;;;;7368533;19;20682;-59
2024/04/09 04:38:46;;;;;;;10.88;6.55;;;14.20;99.90;;;;;;7368422;19;20019;-70
2024/04/09 04:41:13;;;;;;;11.00;6.68;;;14.20;99.90;;;;;;7371081;19;20030;-59
2024/04/09 04:43:39;;;;;;;12.27;6.75;;;14.20;99.90;;;;;;7365894;19;20254;-60
2024/04/09 04:46:09;;;;;;;10.55;7.25;;;14.10;99.90;;;;;;7369367;19;20047;-60
2024/04/09 04:48:37;;;;;;;11.38;7.55;;;14.10;99.90;;;;;;7366814;19;20651;-60
2024/04/09 04:51:04;;;;;;;14.27;9.15;;;14.10;99.90;;;;;;7366531;19;20101;-59
2024/04/09 04:53:30;;;;;;;11.10;8.48;;;14.00;99.90;;;;;;7362869;19;20029;-60
2024/04/09 04:55:56;;;;;;;11.27;9.10;;;14.00;99.90;;;;;;7371922;19;20043;-60
2024/04/09 04:58:23;;;;;;;9.90;8.57;;;13.90;99.90;;;;;;7367023;19;20022;-60
2024/04/09 05:00:52;;;;;;;11.70;9.35;;;13.90;99.90;;;;;;7365885;19;20025;-70
2024/04/09 05:03:19;;;;;;;12.55;10.77;;;13.80;99.90;;;;;;7365504;19;21268;-70
2024/04/09 05:05:45;;;;;;;12.75;9.63;;;13.90;99.90;;;;;;7371733;19;20352;-70
2024/04/09 05:08:11;;;;;;;12.10;10.73;;;13.80;99.90;;;;;;7368657;19;20526;-69
2024/04/09 05:10:38;;;;;;;11.48;10.38;;;13.80;99.90;;;;;;7363422;19;20026;-70
2024/04/09 05:13:04;;;;;;;12.55;11.13;;;13.80;99.90;;;;;;7369671;19;20062;-65
2024/04/09 05:15:30;;;;;;;13.20;11.68;;;13.80;99.90;;;;;;7368589;19;20042;-66
2024/04/09 05:17:56;;;;;;;13.38;10.27;;;13.80;99.90;;;;;;7367160;19;20646;-70
2024/04/09 05:20:26;;;;;;;13.63;11.20;;;13.80;99.90;;;;;;7366436;19;20011;-69
2024/04/09 05:22:53;;;;;;;13.18;11.88;;;13.80;99.90;;;;;;7369370;19;20019;-69
2024/04/09 05:25:19;;;;;;;13.27;12.02;;;13.80;99.90;;;;;;7366327;19;21307;-69
2024/04/09 05:27:45;;;;;;;16.17;11.85;;;13.80;99.90;;;;;;7368280;19;20466;-70
2024/04/09 05:30:12;;;;;;;15.20;11.70;;;13.80;99.90;;;;;;7370135;19;20024;-59
2024/04/09 05:32:43;;;;;;;12.50;10.70;;;13.90;99.90;;;;;;7368783;19;21277;-59
2024/04/09 05:35:10;;;;;;;13.85;10.00;;;13.90;99.90;;;;;;7372551;19;20014;-68
2024/04/09 05:37:37;;;;;;;12.30;10.30;;;13.90;99.90;;;;;;7370289;19;20463;-69
2024/04/09 05:40:08;;;;;;;10.48;8.75;;;13.90;99.90;;;;;;7372835;19;20182;-59
2024/04/09 05:42:45;;;;;;;9.40;6.85;;;13.80;99.90;;;;;;7369347;19;20011;-61
2024/04/09 05:45:18;;;;;;;9.95;6.30;;;13.80;99.90;;;;;;7368409;19;20010;-70
2024/04/09 05:47:45;;;;;;;10.43;5.50;;;13.70;99.90;;;;;;7372147;19;20504;-70
2024/04/09 05:50:13;;;;;;;11.50;7.00;;;13.70;99.90;;;;;;7371584;19;20026;-70
2024/04/09 05:52:39;;;;;;;10.07;5.90;;;13.60;99.90;;;;;;7370716;19;20007;-70
2024/04/09 05:55:06;;;;;;;9.45;5.57;;;13.60;99.90;;;;;;7368687;19;20026;-70
2024/04/09 05:57:36;;;;;;;10.80;6.40;;;13.50;99.90;;;;;;7365421;19;20431;-70
2024/04/09 06:00:07;;;;;;;10.60;5.97;;;13.50;99.90;;;;;;7368422;19;20074;-70
2024/04/09 06:02:38;;;;;;;7.97;5.55;;;13.50;99.90;;;;;;7370313;19;20348;-70
2024/04/09 06:05:05;;;;;;;8.50;4.82;;;13.40;99.90;;;;;;7366795;19;20097;-70
2024/04/09 06:07:31;;;;;;;9.82;5.75;;;13.40;99.90;;;;;;7370023;19;20022;-70
2024/04/09 06:09:58;;;;;;;10.25;5.32;;;13.40;99.90;;;;;;7369381;19;20047;-70
2024/04/09 06:12:24;;;;;;;8.85;5.50;;;13.40;99.90;;;;;;7369276;19;20014;-70
2024/04/09 06:14:53;;;;;;;10.55;5.53;;;13.40;99.90;;;;;;7370045;19;20797;-69
2024/04/09 06:17:21;;;;;;;10.48;5.88;;;13.40;99.90;;;;;;7368169;19;20019;-71
2024/04/09 06:19:47;;;;;;;11.70;5.97;;;13.40;99.90;;;;;;7370955;19;20075;-70
2024/04/09 06:22:13;;;;;;;14.32;6.07;;;13.40;99.90;;;;;;7371845;19;20101;-70
2024/04/09 06:24:41;;;;;;;11.65;5.55;;;13.40;99.90;;;;;;7366956;19;20011;-71
2024/04/09 06:27:07;;;;;;;10.65;5.00;;;13.30;99.90;;;;;;7372168;19;20018;-60
2024/04/09 06:29:34;;;;;;;8.30;4.00;;;13.30;99.90;;;;;;7369346;19;20015;-70
2024/04/09 06:32:00;;;;;;;10.07;4.10;;;13.20;99.90;;;;;;7372715;19;20025;-68
2024/04/09 06:34:27;;;;;;;13.07;4.45;;;13.00;99.90;;;;;;7371143;19;20388;-72
2024/04/09 06:36:53;;;;;;;9.50;4.07;;;13.00;99.90;;;;;;7373632;19;20045;-71
2024/04/09 06:39:19;;;;;;;10.65;3.83;;;12.90;99.90;;;;;;7376344;19;20014;-60
2024/04/09 06:41:47;;;;;;;7.32;3.75;;;12.90;99.90;;;;;;7382121;19;20018;-71
2024/04/09 06:44:14;;;;;;;9.77;3.72;;;12.80;99.90;;;;;;7381033;19;20667;-60
2024/04/09 06:46:43;;;;;;;12.93;4.25;;;12.80;99.90;;;;;;7380460;19;20014;-70
2024/04/09 06:49:10;;;;;;;8.43;3.58;;;12.80;99.90;;;;;;7378269;19;20018;-60
2024/04/09 06:51:36;;;;;;;12.35;3.65;;;12.90;99.90;;;;;;7380943;19;20015;-59
2024/04/09 06:54:03;;;;;;;10.13;4.15;;;12.80;99.90;;;;;;7377684;19;20023;-60
2024/04/09 06:56:29;;;;;;;14.90;4.07;;;12.90;99.90;;;;;;7379343;19;20021;-69
2024/04/09 06:58:56;;;;;;;15.63;4.38;;;12.90;99.90;;;;;;7378821;19;20650;-71
2024/04/09 07:01:22;;;;;;;10.90;4.05;;;12.90;99.90;;;;;;7374156;19;20632;-70
2024/04/09 07:03:49;;;;;;;11.00;4.22;;;13.00;99.90;;;;;;7377498;19;20022;-70
2024/04/09 07:06:16;;;;;;;10.65;3.05;;;13.00;99.90;;;;;;7375823;19;20801;-72
2024/04/09 07:08:42;;;;;;;12.15;3.92;;;13.00;99.90;;;;;;7376138;19;20467;-70
2024/04/09 07:11:08;;;;;;;9.30;3.00;;;13.00;99.90;;;;;;7379240;19;20466;-70
2024/04/09 07:13:34;;;;;;;9.55;3.55;;;13.10;99.90;;;;;;7376894;19;20019;-69
2024/04/09 07:16:00;;;;;;;13.60;3.50;;;13.10;99.90;;;;;;7380694;19;20117;-70
2024/04/09 07:18:27;;;;;;;9.80;3.65;;;13.20;99.90;;;;;;7378248;19;20025;-70
2024/04/09 07:20:53;;;;;;;10.95;3.45;;;13.30;99.90;;;;;;7380738;19;20006;-68
2024/04/09 07:23:20;;;;;;;11.85;3.92;;;13.30;99.90;;;;;;7377940;19;20018;-71
2024/04/09 07:25:46;;;;;;;8.40;3.38;;;13.40;99.90;;;;;;7379566;19;20029;-60
2024/04/09 07:28:13;;;;;;;13.32;3.58;;;13.30;99.90;;;;;;7379458;19;20043;-72
2024/04/09 07:30:40;;;;;;;10.90;3.50;;;13.20;99.90;;;;;;7377277;19;20010;-72
2024/04/09 07:33:06;;;;;;;9.30;3.50;;;13.10;99.90;;;;;;7377103;19;20035;-63
2024/04/09 07:35:32;;;;;;;10.90;3.80;;;13.10;99.90;;;;;;7378284;19;20022;-70
2024/04/09 07:38:00;;;;;;;9.75;3.85;;;13.10;99.90;;;;;;7376759;19;20019;-61
2024/04/09 07:40:26;;;;;;;10.10;4.15;;;13.00;99.90;;;;;;7376446;19;20010;-61
2024/04/09 07:42:52;;;;;;;8.50;4.18;;;13.00;99.90;;;;;;7377524;19;20021;-61
2024/04/09 07:45:19;;;;;;;10.88;3.95;;;13.00;99.90;;;;;;7376478;19;20069;-61
2024/04/09 07:47:49;;;;;;;11.57;3.50;;;13.00;99.90;;;;;;7377270;19;20014;-61
2024/04/09 07:50:19;;;;;;;10.55;3.88;;;12.90;99.90;;;;;;7374772;19;20019;-72
2024/04/09 07:52:46;;;;;;;10.82;3.55;;;12.90;99.90;;;;;;7374944;19;20078;-71
2024/04/09 07:55:13;;;;;;;13.13;4.05;;;12.90;99.90;;;;;;7374200;19;20036;-60
2024/04/09 07:57:39;;;;;;;9.73;3.47;;;12.90;99.90;;;;;;7374590;19;20038;-71
2024/04/09 08:00:13;;;;;;;11.43;3.42;;;12.90;99.90;;;;;;7375688;19;20007;-71
2024/04/09 08:02:46;;;;;;;9.15;4.05;;;12.90;99.90;;;;;;7375721;19;20934;-61
2024/04/09 08:05:15;;;;;;;7.53;3.72;;;13.00;99.90;;;;;;7376073;19;20018;-71
2024/04/09 08:07:42;;;;;;;10.43;3.30;;;13.00;99.90;;;;;;7378759;19;20014;-61
2024/04/09 08:10:11;;;;;;;12.40;3.72;;;13.10;99.90;;;;;;7375714;19;20018;-61
2024/04/09 08:12:49;;;;;;;10.23;3.30;;;13.10;99.90;;;;;;7378959;19;20015;-61
2024/04/09 08:15:18;;;;;;;10.30;3.10;;;13.20;99.90;;;;;;7375146;19;20015;-61
2024/04/09 08:17:47;;;;;;;12.63;3.70;;;13.30;99.90;;;;;;7372505;19;20029;-65
2024/04/09 08:20:13;;;;;;;8.57;3.05;;;13.30;99.90;;;;;;7376828;19;20624;-61
2024/04/09 08:22:39;;;;;;;19.25;3.30;;;13.40;99.90;;;;;;7375779;19;20088;-60
2024/04/09 08:25:07;;;;;;;11.90;3.55;;;13.50;99.90;;;;;;7375768;19;20018;-61
2024/04/09 08:27:38;;;;;;;7.43;2.95;;;13.40;99.90;;;;;;7378644;19;20019;-60
2024/04/09 08:30:06;;;;;;;11.63;3.65;;;13.40;99.90;;;;;;7372771;19;20018;-61
2024/04/09 08:32:33;;;;;;;12.30;3.50;;;13.30;99.90;;;;;;7375992;19;20014;-62
2024/04/09 08:34:59;;;;;;;10.10;3.25;;;13.20;99.90;;;;;;7376200;19;20018;-63
2024/04/09 08:37:25;;;;;;;12.23;3.45;;;13.20;99.90;;;;;;7374027;19;20086;-61
2024/04/09 08:39:53;;;;;;;12.85;3.97;;;13.30;99.90;;;;;;7374755;19;20010;-61
2024/04/09 08:42:26;;;;;;;11.30;3.63;;;13.50;99.90;;;;;;7374371;19;20094;-61
2024/04/09 08:44:57;;;;;;;12.52;4.90;;;13.80;99.90;;;;;;7372831;19;20505;-61
2024/04/09 08:47:24;;;;;;;8.60;5.40;;;13.90;99.90;;;;;;7372036;19;20014;-61
2024/04/09 08:49:55;;;;;;;10.80;5.78;;;14.00;99.90;;;;;;7375220;19;20037;-61
2024/04/09 08:52:23;;;;;;;11.98;6.57;;;14.10;99.90;;;;;;7373080;19;20034;-62
2024/04/09 08:54:50;;;;;;;8.52;5.65;;;14.30;99.90;;;;;;7374406;19;20093;-62
2024/04/09 08:57:17;;;;;;;9.70;5.45;;;14.30;58.20;;;;;;7374120;19;20019;-62
2024/04/09 08:59:44;;;;;;;8.70;5.53;;;14.60;61.50;;;;;;7374993;19;20113;-73
2024/04/09 09:02:14;;;;;;;9.02;5.40;;;15.00;1.00;;;;;;7374244;19;20768;-74
2024/04/09 09:04:43;;;;;;;8.45;5.50;;;15.20;42.00;;;;;;7373255;19;20021;-66
2024/04/09 09:07:13;;;;;;;8.90;5.60;;;15.10;17.00;;;;;;7375938;19;20018;-73
2024/04/09 09:09:40;;;;;;;6.93;5.10;;;14.70;1.00;;;;;;7375567;19;20018;-73
2024/04/09 09:12:06;;;;;;;8.68;5.50;;;14.60;1.00;;;;;;7373487;19;20781;-62
2024/04/09 09:14:33;;;;;;;6.97;4.93;;;14.70;30.70;;;;;;7377558;19;20654;-63
2024/04/09 09:17:04;;;;;;;7.85;5.30;;;14.80;1.00;;;;;;7371208;19;20024;-63
2024/04/09 09:19:31;;;;;;;7.67;4.63;;;14.80;1.00;;;;;;7375735;19;20014;-62
2024/04/09 09:21:58;;;;;;;10.85;4.95;;;14.80;1.00;;;;;;7372795;19;20339;-62
2024/04/09 09:24:24;;;;;;;8.45;4.50;;;14.70;1.00;;;;;;7374985;19;20469;-63
2024/04/09 09:27:04;;;;;;;5.68;3.83;;;14.60;99.90;;;;;;7374258;19;20674;-63
2024/04/09 09:29:32;;;;;;;7.10;4.07;;;14.60;99.90;;;;;;7373599;19;20107;-63
2024/04/09 09:31:59;;;;;;;7.63;4.35;;;14.80;1.00;;;;;;7375296;19;20006;-73
2024/04/09 09:34:47;;;;;;;7.13;3.97;;;15.00;99.90;;;;;;7370791;19;20010;-73
2024/04/09 09:37:13;;;;;;;8.73;3.97;;;15.00;99.90;;;;;;7372225;19;20038;-73
2024/04/09 09:39:40;;;;;;;5.80;3.50;;;14.90;99.90;;;;;;7369570;19;20015;-73
2024/04/09 09:42:10;;;;;;;8.52;4.38;;;15.00;99.90;;;;;;7372535;19;20906;-72
2024/04/09 09:44:38;;;;;;;6.95;2.83;;;14.90;99.90;;;;;;7375335;19;20037;-69
2024/04/09 09:47:05;;;;;;;2.90;1.20;;;14.60;99.90;;;;;;7373199;19;20014;-73
2024/04/09 09:49:32;;;;;;;4.85;1.50;;;14.30;99.90;;;;;;7374006;19;20093;-73
2024/04/09 09:51:59;;;;;;;4.72;1.50;;;14.40;99.90;;;;;;7375084;19;20388;-73
2024/04/09 09:54:28;;;;;;;4.85;1.38;;;14.50;99.90;;;;;;7375849;19;20011;-74
2024/04/09 09:57:08;;;;;;;9.23;1.40;;;14.60;34.30;;;;;;7374302;19;20661;-62
2024/04/09 09:59:46;;;;;;;8.15;1.40;;;14.80;17.70;;;;;;7377968;19;20018;-63
2024/04/09 10:02:14;;;;;;;4.03;1.30;;;15.20;46.50;;;;;;7375492;19;20595;-62
2024/04/09 10:04:42;;;;;;;4.82;1.27;;;15.20;1.00;;;;;;7375989;19;20029;-64
2024/04/09 10:07:11;;;;;;;26.50;16.00;;;15.30;1.00;;;;;;7371104;19;20478;-58
2024/04/09 10:09:52;;;;;;;9.10;4.22;;;16.00;9.30;;;;;;7373830;19;20018;-58
2024/04/09 10:12:34;;;;;;;7.03;2.80;;;16.10;1.00;;;;;;7377226;19;20025;-58
2024/04/09 10:15:08;;;;;;;3.85;1.50;;;16.70;1.00;;;;;;7371992;19;20015;-63
2024/04/09 10:17:50;;;;;;;4.82;1.27;;;16.50;1.00;;;;;;7368765;19;20035;-62
2024/04/09 10:20:25;;;;;;;4.72;1.40;;;16.50;99.90;;;;;;7371507;19;20018;-62
2024/04/09 10:22:53;;;;;;;3.38;1.33;;;17.10;99.90;;;;;;7371770;19;20052;-62
2024/04/09 10:25:24;;;;;;;5.32;1.33;;;17.40;99.90;;;;;;7364006;19;20021;-63
2024/04/09 10:28:07;;;;;;;5.15;1.50;;;17.30;99.90;;;;;;7367996;19;21573;-62
2024/04/09 10:30:35;;;;;;;4.95;1.42;;;17.00;99.90;;;;;;7367437;19;20082;-62
2024/04/09 10:33:04;;;;;;;5.75;1.92;;;17.10;99.90;;;;;;7371895;19;20101;-63
2024/04/09 10:35:30;;;;;;;8.68;2.05;;;17.50;99.90;;;;;;7372884;19;20018;-67
2024/04/09 10:37:58;;;;;;;4.45;1.17;;;17.30;99.90;;;;;;7371966;19;20447;-64
2024/04/09 10:40:25;;;;;;;5.53;1.48;;;16.70;99.90;;;;;;7373321;19;20048;-62
2024/04/09 10:42:52;;;;;;;4.43;1.23;;;16.80;99.90;;;;;;7371938;19;20018;-62
2024/04/09 10:45:19;;;;;;;4.63;1.30;;;17.00;99.90;;;;;;7371835;19;20363;-64
2024/04/09 10:47:46;;;;;;;3.33;1.10;;;17.20;99.90;;;;;;7372128;19;20015;-62
2024/04/09 10:50:15;;;;;;;6.10;1.58;;;17.40;99.90;;;;;;7372315;19;20898;-62
2024/04/09 10:52:42;;;;;;;4.30;1.30;;;17.30;99.90;;;;;;7374907;19;20138;-62
2024/04/09 10:55:15;;;;;;;4.82;1.20;;;16.90;99.90;;;;;;7372954;19;20019;-62
2024/04/09 10:57:49;;;;;;;3.45;1.30;;;16.40;99.90;;;;;;7372690;19;20129;-62
2024/04/09 11:00:18;;;;;;;5.95;1.55;;;16.70;99.90;;;;;;7372120;19;20052;-62
2024/04/09 11:02:45;;;;;;;4.95;1.05;;;16.60;99.90;;;;;;7370043;19;20018;-61
2024/04/09 11:05:13;;;;;;;3.15;1.30;;;16.40;99.90;;;;;;7371782;19;20022;-61
2024/04/09 11:07:41;;;;;;;4.85;1.30;;;16.10;99.90;;;;;;7369849;19;20015;-62
2024/04/09 11:10:19;;;;;;;4.15;1.33;;;16.00;99.90;;;;;;7370980;19;20018;-62
2024/04/09 11:12:52;;;;;;;3.85;1.40;;;16.20;99.90;;;;;;7372990;19;20017;-62
2024/04/09 11:15:19;;;;;;;5.90;1.65;;;15.90;99.90;;;;;;7373445;19;20018;-61
2024/04/09 11:17:46;;;;;;;5.57;1.33;;;15.80;99.90;;;;;;7369515;19;20406;-62
2024/04/09 11:20:14;;;;;;;3.80;1.48;;;15.90;1.00;;;;;;7373587;19;20027;-68
2024/04/09 11:22:43;;;;;;;8.45;1.50;;;15.70;99.90;;;;;;7378115;19;20035;-68
2024/04/09 11:25:13;;;;;;;6.78;1.23;;;15.50;99.90;;;;;;7379987;19;20044;-61
2024/04/09 11:27:44;;;;;;;4.13;1.50;;;15.20;99.90;;;;;;7381333;19;20053;-68
2024/04/09 11:30:21;;;;;;;4.28;1.40;;;15.20;1.00;;;;;;7385087;19;20015;-68
2024/04/09 11:32:47;;;;;;;2.92;1.15;;;15.10;1.00;;;;;;7385616;19;20033;-68
2024/04/09 11:35:18;;;;;;;6.70;1.52;;;15.00;1.00;;;;;;7379819;19;20037;-68
2024/04/09 11:37:55;;;;;;;3.63;1.20;;;15.00;1.00;;;;;;7377799;19;20031;-68
2024/04/09 11:40:26;;;;;;;5.32;1.30;;;15.10;1.00;;;;;;7380717;19;20045;-68
2024/04/09 11:42:53;;;;;;;6.85;1.77;;;15.00;1.00;;;;;;7379650;19;20022;-68
2024/04/09 11:45:23;;;;;;;3.97;1.75;;;15.00;1.00;;;;;;7380038;19;20019;-70
2024/04/09 11:47:50;;;;;;;5.88;1.80;;;14.90;1.00;;;;;;7382091;19;20026;-68
2024/04/09 11:50:17;;;;;;;6.93;1.95;;;14.80;1.00;;;;;;7379971;19;20014;-68
2024/04/09 11:52:44;;;;;;;7.00;1.38;;;14.60;1.00;;;;;;7383312;19;20011;-68
2024/04/09 11:55:11;;;;;;;7.25;1.40;;;14.50;1.00;;;;;;7378238;19;20025;-69
2024/04/09 11:57:40;;;;;;;7.07;1.42;;;14.40;1.00;;;;;;7378906;19;20010;-68
2024/04/09 12:00:08;;;;;;;4.78;1.02;;;14.40;1.00;;;;;;7376877;19;20022;-69
2024/04/09 12:02:34;;;;;;;7.35;1.10;;;14.40;99.90;;;;;;7378695;19;20037;-68
2024/04/09 12:05:00;;;;;;;6.72;1.17;;;14.40;99.90;;;;;;7372310;19;20439;-69
2024/04/09 12:07:26;;;;;;;5.30;1.48;;;14.50;1.00;;;;;;7372969;19;20014;-69
2024/04/09 12:09:53;;;;;;;6.07;1.10;;;14.60;1.00;;;;;;7375382;19;20380;-68
2024/04/09 12:12:19;;;;;;;5.25;1.13;;;14.70;1.00;;;;;;7375539;19;20023;-66
2024/04/09 12:14:45;;;;;;;7.40;1.23;;;14.90;99.90;;;;;;7373912;19;20017;-68
2024/04/09 12:17:12;;;;;;;4.07;1.20;;;14.80;1.00;;;;;;7366834;19;20086;-61
2024/04/09 12:19:39;;;;;;;3.58;1.77;;;15.20;99.90;;;;;;7376962;19;20485;-61
2024/04/09 12:22:06;;;;;;;6.43;1.20;;;15.10;99.90;;;;;;7377902;19;20014;-60
2024/04/09 12:24:32;;;;;;;5.45;1.55;;;15.30;99.90;;;;;;7371888;19;20049;-59
2024/04/09 12:26:59;;;;;;;3.80;1.20;;;15.10;99.90;;;;;;7378871;19;20719;-60
2024/04/09 12:29:25;;;;;;;5.30;1.42;;;14.80;99.90;;;;;;7370474;19;20018;-60
2024/04/09 12:31:52;;;;;;;3.83;1.00;;;14.70;99.90;;;;;;7378053;19;20420;-59
2024/04/09 12:34:18;;;;;;;4.78;1.35;;;14.40;99.90;;;;;;7369474;19;20025;-59
2024/04/09 12:36:45;;;;;;;4.55;1.20;;;14.20;99.90;;;;;;7374440;19;20025;-60
2024/04/09 12:39:11;;;;;;;4.90;1.40;;;14.20;1.00;;;;;;7371555;19;20058;-60
2024/04/09 12:41:38;;;;;;;4.32;1.00;;;14.20;1.00;;;;;;7373145;19;20514;-59